Time;durP1;ratioP1;P1;durP2;ratioP2;P2;SDS_P1;SDS_P2;PMS_P1;PMS_P2;Temp;Humidity;BMP_temperature;BMP_pressure;BME280_temperature;BME280_humidity;BME280_pressure;Samples;Min_cycle;Max_cycle;Signal;HPM_P1;HPM_P2
2021/10/30 00:01:30;;;;;;;37.45;23.52;;;282.10;2278.40;;;;;;5116984;28;20031;-74
2021/10/30 00:03:55;;;;;;;38.85;23.63;;;282.00;2278.40;;;;;;5125844;28;20102;-74
2021/10/30 00:06:21;;;;;;;36.95;22.65;;;282.00;2278.40;;;;;;5132158;27;20079;-74
2021/10/30 00:08:47;;;;;;;29.48;21.33;;;281.90;2278.40;;;;;;5122541;27;20032;-74
2021/10/30 00:11:13;;;;;;;36.85;22.67;;;281.80;2278.40;;;;;;5123455;27;20471;-75
2021/10/30 00:13:38;;;;;;;36.58;23.27;;;281.80;2278.40;;;;;;5114612;28;20489;-74
2021/10/30 00:16:04;;;;;;;34.72;20.67;;;281.80;2278.40;;;;;;5131412;27;20436;-75
2021/10/30 00:18:30;;;;;;;29.13;19.90;;;281.80;2278.40;;;;;;5136091;27;20127;-75
2021/10/30 00:20:58;;;;;;;25.98;17.95;;;281.90;2278.40;;;;;;5134256;27;20054;-75
2021/10/30 00:23:24;;;;;;;27.80;19.08;;;281.80;2278.40;;;;;;5135831;27;20094;-75
2021/10/30 00:25:49;;;;;;;27.75;17.90;;;281.90;2278.40;;;;;;5128400;27;20114;-75
2021/10/30 00:28:15;;;;;;;25.08;18.35;;;281.90;2278.40;;;;;;5133115;27;20379;-74
2021/10/30 00:30:41;;;;;;;29.25;20.15;;;281.90;2278.40;;;;;;5132759;27;20035;-74
2021/10/30 00:33:07;;;;;;;31.35;20.25;;;281.90;2278.40;;;;;;5123065;27;20467;-75
2021/10/30 00:35:33;;;;;;;37.33;20.40;;;282.00;2278.40;;;;;;5124490;27;20027;-75
2021/10/30 00:37:59;;;;;;;30.58;21.65;;;282.00;2278.40;;;;;;5133782;27;20027;-75
2021/10/30 00:40:25;;;;;;;30.40;20.60;;;282.00;2278.40;;;;;;5126973;27;20032;-75
2021/10/30 00:42:51;;;;;;;30.33;20.00;;;282.10;2278.40;;;;;;5122102;27;20072;-75
2021/10/30 00:45:17;;;;;;;29.52;20.70;;;282.10;2278.40;;;;;;5135241;27;20387;-75
2021/10/30 00:47:43;;;;;;;26.98;19.63;;;282.20;2278.40;;;;;;5134482;27;20035;-75
2021/10/30 00:50:09;;;;;;;31.30;20.67;;;282.30;2278.40;;;;;;5134494;27;20034;-75
2021/10/30 00:52:35;;;;;;;29.50;20.20;;;282.30;2278.40;;;;;;5124286;27;20023;-75
2021/10/30 00:55:03;;;;;;;28.08;18.75;;;282.40;2278.40;;;;;;5133798;27;20464;-76
2021/10/30 00:57:28;;;;;;;31.63;18.73;;;282.50;2278.40;;;;;;5125828;27;20110;-75
2021/10/30 00:59:55;;;;;;;28.23;19.58;;;282.50;2278.40;;;;;;5120478;27;20167;-76
2021/10/30 01:02:22;;;;;;;25.60;17.98;;;282.50;2278.40;;;;;;5134934;27;20102;-75
2021/10/30 01:04:48;;;;;;;28.80;19.70;;;307.20;2304.00;;;;;;5134440;27;20030;-75
2021/10/30 01:07:14;;;;;;;31.65;20.80;;;307.20;2304.00;;;;;;5129312;27;20027;-75
2021/10/30 01:09:40;;;;;;;30.20;19.02;;;307.30;2304.00;;;;;;5132802;27;20027;-76
2021/10/30 01:12:08;;;;;;;28.52;20.85;;;307.30;2304.00;;;;;;5134669;27;20102;-75
2021/10/30 01:14:35;;;;;;;25.13;19.70;;;307.30;2304.00;;;;;;5126955;27;20392;-75
2021/10/30 01:17:04;;;;;;;32.17;20.50;;;307.30;2304.00;;;;;;5122443;27;20015;-76
2021/10/30 01:19:30;;;;;;;31.75;20.88;;;307.40;2304.00;;;;;;5134007;27;20054;-75
2021/10/30 01:21:57;;;;;;;31.35;20.80;;;307.40;2304.00;;;;;;5133921;27;20034;-75
2021/10/30 01:24:23;;;;;;;30.90;20.30;;;307.40;2304.00;;;;;;5132954;27;20031;-75
2021/10/30 01:26:49;;;;;;;24.48;19.92;;;307.40;2304.00;;;;;;5132717;27;20011;-75
2021/10/30 01:29:15;;;;;;;30.02;21.15;;;307.40;2304.00;;;;;;5134205;27;20494;-75
2021/10/30 01:31:41;;;;;;;30.08;20.98;;;307.40;2304.00;;;;;;5133761;27;20208;-75
2021/10/30 01:34:09;;;;;;;24.35;19.73;;;307.40;2304.00;;;;;;5134561;27;20051;-75
2021/10/30 01:36:36;;;;;;;26.73;20.45;;;307.40;2304.00;;;;;;5132574;27;20019;-76
2021/10/30 01:39:07;;;;;;;30.20;20.27;;;307.40;2304.00;;;;;;5132500;27;20063;-76
2021/10/30 01:41:33;;;;;;;27.77;18.30;;;307.30;2304.00;;;;;;5134254;27;20019;-76
2021/10/30 01:44:00;;;;;;;28.05;19.77;;;307.30;2304.00;;;;;;5132373;27;20031;-76
2021/10/30 01:46:26;;;;;;;27.83;18.80;;;307.30;2304.00;;;;;;5132716;27;20034;-76
2021/10/30 01:48:53;;;;;;;28.38;18.98;;;307.30;2304.00;;;;;;5133204;27;20411;-76
2021/10/30 01:51:20;;;;;;;30.02;21.27;;;307.20;2304.00;;;;;;5134328;27;20019;-76
2021/10/30 01:53:46;;;;;;;26.55;18.83;;;307.30;2304.00;;;;;;5132271;27;20039;-76
2021/10/30 01:56:12;;;;;;;33.00;20.55;;;307.30;2304.00;;;;;;5154299;27;20016;-75
2021/10/30 01:58:38;;;;;;;25.02;19.38;;;307.20;2304.00;;;;;;5150182;27;20043;-77
2021/10/30 02:01:06;;;;;;;28.70;20.63;;;307.20;2304.00;;;;;;5144809;27;20554;-76
2021/10/30 02:03:33;;;;;;;30.58;21.40;;;307.20;2304.00;;;;;;5134113;27;20077;-76
2021/10/30 02:06:00;;;;;;;32.45;20.38;;;307.20;2304.00;;;;;;5127734;27;20019;-76
2021/10/30 02:08:26;;;;;;;28.85;19.95;;;307.20;2304.00;;;;;;5118708;27;20031;-76
2021/10/30 02:10:52;;;;;;;33.22;21.52;;;282.50;2278.40;;;;;;5133651;27;20015;-76
2021/10/30 02:13:19;;;;;;;30.40;19.95;;;282.50;2278.40;;;;;;5132220;27;20030;-76
2021/10/30 02:15:45;;;;;;;27.02;20.20;;;282.50;2278.40;;;;;;5120348;27;20029;-76
2021/10/30 02:18:12;;;;;;;33.63;21.52;;;282.50;2278.40;;;;;;5122271;27;20051;-76
2021/10/30 02:20:38;;;;;;;31.73;20.85;;;282.40;2278.40;;;;;;5133421;27;20471;-75
2021/10/30 02:23:04;;;;;;;30.73;21.33;;;282.40;2278.40;;;;;;5131724;27;20072;-76
2021/10/30 02:25:30;;;;;;;30.25;20.20;;;282.40;2278.40;;;;;;5132217;27;20068;-76
2021/10/30 02:27:56;;;;;;;30.20;22.20;;;282.30;2278.40;;;;;;5131736;27;20027;-76
2021/10/30 02:30:23;;;;;;;30.20;21.38;;;282.30;2278.40;;;;;;5114439;27;20449;-77
2021/10/30 02:32:49;;;;;;;30.88;21.23;;;282.20;2278.40;;;;;;5127386;27;20019;-75
2021/10/30 02:35:15;;;;;;;32.17;21.20;;;282.20;2278.40;;;;;;5133140;27;20046;-75
2021/10/30 02:37:42;;;;;;;31.80;20.98;;;282.10;2278.40;;;;;;5132381;27;20062;-75
2021/10/30 02:40:08;;;;;;;33.33;21.40;;;282.10;2278.40;;;;;;5131363;27;20398;-76
2021/10/30 02:42:35;;;;;;;31.85;21.75;;;282.10;2278.40;;;;;;5131372;27;20026;-75
2021/10/30 02:45:01;;;;;;;34.28;22.25;;;282.10;2278.40;;;;;;5131800;27;20026;-75
2021/10/30 02:47:29;;;;;;;31.95;22.45;;;282.10;2278.40;;;;;;5132497;27;20545;-75
2021/10/30 02:49:55;;;;;;;30.95;22.27;;;282.10;2278.40;;;;;;5130946;27;20121;-76
2021/10/30 02:52:21;;;;;;;35.22;20.75;;;282.10;2278.40;;;;;;5131773;27;20836;-75
2021/10/30 02:54:47;;;;;;;31.48;21.50;;;282.20;2278.40;;;;;;5131073;27;20019;-76
2021/10/30 02:57:12;;;;;;;29.58;21.60;;;282.30;2278.40;;;;;;5131352;27;20124;-76
2021/10/30 02:59:38;;;;;;;30.05;22.58;;;282.30;2278.40;;;;;;5132261;27;20160;-76
2021/10/30 03:02:04;;;;;;;29.00;21.02;;;282.30;2278.40;;;;;;5131374;27;20034;-76
2021/10/30 03:04:30;;;;;;;33.60;23.58;;;282.40;2278.40;;;;;;5130948;27;20114;-76
2021/10/30 03:06:56;;;;;;;32.17;22.83;;;282.50;2278.40;;;;;;5131490;27;20563;-76
2021/10/30 03:09:22;;;;;;;30.90;21.55;;;282.50;2278.40;;;;;;5125478;27;20531;-76
2021/10/30 03:11:47;;;;;;;31.88;22.77;;;307.20;2304.00;;;;;;5128523;27;20023;-76
2021/10/30 03:14:13;;;;;;;29.48;22.20;;;307.20;2304.00;;;;;;5123233;27;20494;-76
2021/10/30 03:16:40;;;;;;;38.97;25.25;;;307.20;2304.00;;;;;;5131462;27;20019;-76
2021/10/30 03:19:05;;;;;;;33.60;24.10;;;307.20;2304.00;;;;;;5131683;27;20722;-76
2021/10/30 03:21:32;;;;;;;35.75;23.65;;;307.20;2304.00;;;;;;5130495;27;20091;-76
2021/10/30 03:23:58;;;;;;;33.60;22.52;;;307.20;2304.00;;;;;;5125488;28;20074;-76
2021/10/30 03:26:23;;;;;;;32.85;24.48;;;307.20;2304.00;;;;;;5128828;27;20483;-76
2021/10/30 03:28:50;;;;;;;34.22;23.25;;;307.30;2304.00;;;;;;5129038;27;20126;-76
2021/10/30 03:31:16;;;;;;;31.58;23.52;;;307.30;2304.00;;;;;;5121518;27;20103;-76
2021/10/30 03:33:41;;;;;;;34.65;22.20;;;307.20;2304.00;;;;;;5124018;27;20051;-76
2021/10/30 03:36:07;;;;;;;34.05;23.23;;;307.30;2304.00;;;;;;5131057;27;20438;-76
2021/10/30 03:38:33;;;;;;;33.88;22.58;;;307.30;2304.00;;;;;;5132305;27;20422;-76
2021/10/30 03:40:59;;;;;;;32.78;24.13;;;307.30;2304.00;;;;;;5132182;27;20102;-76
2021/10/30 03:43:25;;;;;;;33.33;24.88;;;307.30;2304.00;;;;;;5136135;27;20026;-76
2021/10/30 03:45:51;;;;;;;34.53;23.70;;;307.30;2304.00;;;;;;5136367;27;20023;-76
2021/10/30 03:48:18;;;;;;;36.00;23.27;;;307.20;2304.00;;;;;;5134420;27;20038;-75
2021/10/30 03:50:45;;;;;;;33.30;23.33;;;307.20;2304.00;;;;;;5132904;27;20114;-76
2021/10/30 03:53:11;;;;;;;34.67;23.30;;;307.20;2304.00;;;;;;5125577;27;20382;-75
2021/10/30 03:55:36;;;;;;;34.40;22.60;;;307.20;2304.00;;;;;;5130313;27;20027;-76
2021/10/30 03:58:04;;;;;;;29.80;22.73;;;307.20;2304.00;;;;;;5135513;27;20094;-75
2021/10/30 04:00:30;;;;;;;36.50;23.17;;;307.20;2304.00;;;;;;5136000;27;20419;-75
2021/10/30 04:02:55;;;;;;;34.40;23.63;;;282.50;2278.40;;;;;;5135427;27;20099;-75
2021/10/30 04:05:22;;;;;;;32.95;22.50;;;282.50;2278.40;;;;;;5130823;27;20038;-75
2021/10/30 04:07:48;;;;;;;32.17;22.90;;;282.50;2278.40;;;;;;5131126;27;20031;-75
2021/10/30 04:10:14;;;;;;;34.08;23.30;;;282.50;2278.40;;;;;;5134732;27;20044;-75
2021/10/30 04:12:40;;;;;;;33.47;23.17;;;282.50;2278.40;;;;;;5130601;27;20015;-75
2021/10/30 04:15:07;;;;;;;34.38;21.30;;;282.50;2278.40;;;;;;5129937;27;20019;-75
2021/10/30 04:17:32;;;;;;;34.63;23.67;;;282.50;2278.40;;;;;;5134016;27;20035;-76
2021/10/30 04:19:58;;;;;;;30.85;23.60;;;282.50;2278.40;;;;;;5135198;27;20034;-75
2021/10/30 04:22:24;;;;;;;32.92;20.73;;;282.50;2278.40;;;;;;5135322;27;20020;-75
2021/10/30 04:24:50;;;;;;;34.03;22.20;;;282.50;2278.40;;;;;;5129596;27;20023;-75
2021/10/30 04:27:16;;;;;;;36.85;23.67;;;282.50;2278.40;;;;;;5135731;27;20027;-75
2021/10/30 04:29:42;;;;;;;35.45;23.67;;;282.40;2278.40;;;;;;5134923;27;20465;-75
2021/10/30 04:32:09;;;;;;;34.70;23.40;;;282.40;2278.40;;;;;;5135458;27;20075;-75
2021/10/30 04:34:47;;;;;;;32.88;23.75;;;282.40;2278.40;;;;;;5134064;27;20063;-75
2021/10/30 04:37:16;;;;;;;32.13;22.95;;;282.40;2278.40;;;;;;5125135;27;20042;-75
2021/10/30 04:39:46;;;;;;;30.45;22.10;;;282.30;2278.40;;;;;;5128276;27;20027;-75
2021/10/30 04:42:14;;;;;;;32.38;22.90;;;282.30;2278.40;;;;;;5132147;27;20079;-75
2021/10/30 04:44:40;;;;;;;36.45;22.48;;;282.30;2278.40;;;;;;5129218;27;20667;-75
2021/10/30 04:47:06;;;;;;;35.60;22.55;;;282.30;2278.40;;;;;;5134167;27;20076;-75
2021/10/30 04:49:34;;;;;;;33.20;22.70;;;282.30;2278.40;;;;;;5134463;27;20115;-75
2021/10/30 04:51:59;;;;;;;36.00;23.83;;;282.20;2278.40;;;;;;5134662;27;20106;-75
2021/10/30 04:54:26;;;;;;;33.25;23.45;;;282.20;2278.40;;;;;;5120617;27;20132;-75
2021/10/30 04:56:51;;;;;;;29.88;21.33;;;282.20;2278.40;;;;;;5132050;27;20023;-74
2021/10/30 04:59:17;;;;;;;29.80;21.27;;;282.20;2278.40;;;;;;5125304;27;20031;-75
2021/10/30 05:01:43;;;;;;;36.65;22.52;;;282.20;2278.40;;;;;;5135381;27;20090;-76
2021/10/30 05:04:09;;;;;;;33.20;23.23;;;282.20;2278.40;;;;;;5123778;27;20028;-76
2021/10/30 05:06:34;;;;;;;33.25;23.55;;;282.10;2278.40;;;;;;5135170;27;20030;-75
2021/10/30 05:09:01;;;;;;;34.00;21.83;;;282.10;2278.40;;;;;;5119915;27;20474;-75
2021/10/30 05:11:26;;;;;;;31.83;22.10;;;282.10;2278.40;;;;;;5131393;27;20046;-76
2021/10/30 05:13:52;;;;;;;30.63;22.70;;;282.20;2278.40;;;;;;5135429;27;20467;-76
2021/10/30 05:16:18;;;;;;;47.80;32.80;;;282.20;2278.40;;;;;;5135311;27;20026;-76
2021/10/30 05:18:43;;;;;;;35.80;24.00;;;282.30;2278.40;;;;;;5124330;27;20502;-76
2021/10/30 05:21:10;;;;;;;38.67;23.80;;;282.30;2278.40;;;;;;5130072;27;20030;-76
2021/10/30 05:23:38;;;;;;;32.22;21.95;;;282.30;2278.40;;;;;;5134000;27;20042;-76
2021/10/30 05:26:05;;;;;;;28.92;21.15;;;282.30;2278.40;;;;;;5133957;27;20028;-76
2021/10/30 05:28:31;;;;;;;31.10;21.23;;;282.30;2278.40;;;;;;5134909;27;20072;-76
2021/10/30 05:30:57;;;;;;;33.92;23.20;;;282.40;2278.40;;;;;;5135164;27;20026;-76
2021/10/30 05:33:22;;;;;;;35.83;21.80;;;282.40;2278.40;;;;;;5135072;27;20019;-76
2021/10/30 05:35:48;;;;;;;31.92;20.23;;;282.50;2278.40;;;;;;5135146;27;20045;-76
2021/10/30 05:38:16;;;;;;;27.35;19.33;;;282.50;2278.40;;;;;;5132483;27;20487;-76
2021/10/30 05:40:42;;;;;;;30.95;20.60;;;282.50;2278.40;;;;;;5133451;27;20402;-75
2021/10/30 05:43:11;;;;;;;25.35;18.50;;;307.20;2304.00;;;;;;5133488;27;20027;-75
2021/10/30 05:45:39;;;;;;;32.25;21.08;;;307.20;2304.00;;;;;;5134899;27;20023;-75
2021/10/30 05:48:06;;;;;;;29.70;20.35;;;307.20;2304.00;;;;;;5134484;27;20027;-75
2021/10/30 05:50:33;;;;;;;31.80;20.25;;;307.20;2304.00;;;;;;5134689;27;20096;-75
2021/10/30 05:52:59;;;;;;;27.70;18.58;;;307.20;2304.00;;;;;;5133478;27;20064;-75
2021/10/30 05:55:25;;;;;;;33.15;19.50;;;307.30;2304.00;;;;;;5134670;27;20046;-75
2021/10/30 05:57:51;;;;;;;28.52;18.42;;;307.30;2304.00;;;;;;5134552;27;20066;-75
2021/10/30 06:00:17;;;;;;;30.40;19.10;;;307.30;2304.00;;;;;;5134581;27;20364;-75
2021/10/30 06:02:42;;;;;;;29.35;19.55;;;307.40;2304.00;;;;;;5128183;27;20023;-75
2021/10/30 06:05:09;;;;;;;34.22;21.55;;;307.40;2304.00;;;;;;5125486;27;20110;-76
2021/10/30 06:07:35;;;;;;;30.88;20.42;;;307.40;2304.00;;;;;;5127064;27;20022;-76
2021/10/30 06:10:01;;;;;;;28.98;18.50;;;307.40;2304.00;;;;;;5124176;27;20505;-76
2021/10/30 06:12:27;;;;;;;30.27;18.00;;;307.40;2304.00;;;;;;5123145;27;20028;-75
2021/10/30 06:14:53;;;;;;;27.42;18.77;;;307.50;2304.00;;;;;;5118340;27;20086;-76
2021/10/30 06:17:19;;;;;;;27.95;18.88;;;307.50;2304.00;;;;;;5120687;27;20055;-75
2021/10/30 06:19:45;;;;;;;27.15;16.85;;;307.60;2304.00;;;;;;5117786;27;20063;-75
2021/10/30 06:22:11;;;;;;;26.05;18.73;;;307.70;2304.00;;;;;;5118464;27;20026;-76
2021/10/30 06:24:38;;;;;;;28.25;18.08;;;307.70;2304.00;;;;;;5123198;27;20023;-76
2021/10/30 06:27:05;;;;;;;25.40;17.42;;;307.70;2304.00;;;;;;5127400;27;20495;-76
2021/10/30 06:29:30;;;;;;;29.55;17.02;;;307.80;2304.00;;;;;;5119541;27;20496;-76
2021/10/30 06:31:56;;;;;;;22.52;15.88;;;307.90;2304.00;;;;;;5124014;27;20072;-77
2021/10/30 06:34:22;;;;;;;29.77;17.92;;;307.90;2304.00;;;;;;5125677;27;20487;-77
2021/10/30 06:36:48;;;;;;;29.00;16.83;;;308.00;2304.00;;;;;;5129291;27;20024;-76
2021/10/30 06:39:14;;;;;;;23.88;16.92;;;308.10;2304.00;;;;;;5120368;27;20019;-76
2021/10/30 06:41:40;;;;;;;22.08;15.23;;;308.10;2304.00;;;;;;5137796;27;20020;-76
2021/10/30 06:44:06;;;;;;;24.67;14.60;;;332.80;2329.60;;;;;;5153592;27;20048;-76
2021/10/30 06:46:32;;;;;;;21.45;15.13;;;332.80;2329.60;;;;;;5145533;27;20047;-75
2021/10/30 06:48:58;;;;;;;21.20;14.55;;;333.00;2329.60;;;;;;5121451;27;20032;-75
2021/10/30 06:51:25;;;;;;;24.42;15.23;;;333.10;2329.60;;;;;;5121080;27;20024;-75
2021/10/30 06:53:51;;;;;;;20.25;14.60;;;333.20;2329.60;;;;;;5130055;27;20475;-75
2021/10/30 06:56:18;;;;;;;21.95;14.00;;;333.50;2329.60;;;;;;5121904;27;20031;-76
2021/10/30 06:58:45;;;;;;;22.42;14.02;;;333.30;2329.60;;;;;;5114537;27;20037;-75
2021/10/30 07:01:13;;;;;;;18.92;13.35;;;333.40;2329.60;;;;;;5124372;27;20080;-75
2021/10/30 07:03:42;;;;;;;23.83;13.93;;;333.50;2329.60;;;;;;5122289;27;20033;-75
2021/10/30 07:06:11;;;;;;;18.73;11.77;;;333.60;2329.60;;;;;;5121890;27;20502;-75
2021/10/30 07:08:37;;;;;;;19.05;13.35;;;333.60;2329.60;;;;;;5123518;27;20032;-75
2021/10/30 07:11:03;;;;;;;18.40;12.77;;;358.40;2329.60;;;;;;5119450;27;20110;-75
2021/10/30 07:13:29;;;;;;;19.80;13.55;;;358.40;2329.60;;;;;;5118856;27;20131;-75
2021/10/30 07:15:55;;;;;;;23.70;12.30;;;358.50;2329.60;;;;;;5118752;27;20020;-75
2021/10/30 07:18:21;;;;;;;20.45;12.07;;;358.60;2329.60;;;;;;5123302;27;20407;-74
2021/10/30 07:20:48;;;;;;;15.77;11.43;;;358.60;2329.60;;;;;;5121852;27;20070;-75
2021/10/30 07:23:17;;;;;;;18.88;11.65;;;358.70;2329.60;;;;;;5120324;28;20042;-74
2021/10/30 07:25:42;;;;;;;28.90;12.70;;;358.80;2329.60;;;;;;5121987;27;20506;-74
2021/10/30 07:28:08;;;;;;;17.70;11.95;;;358.90;2329.60;;;;;;5116509;27;20456;-74
2021/10/30 07:30:34;;;;;;;21.77;13.15;;;359.00;2329.60;;;;;;5121789;28;20088;-74
2021/10/30 07:33:00;;;;;;;24.20;16.80;;;359.10;2329.60;;;;;;5118915;28;20035;-74
2021/10/30 07:35:26;;;;;;;21.40;16.02;;;359.20;2329.60;;;;;;5122955;28;20030;-74
2021/10/30 07:37:58;;;;;;;19.90;12.57;;;359.30;2329.60;;;;;;5121880;28;20038;-75
2021/10/30 07:40:24;;;;;;;23.05;13.75;;;359.30;2329.60;;;;;;5122347;27;20050;-75
2021/10/30 07:42:49;;;;;;;18.60;12.65;;;384.00;2329.60;;;;;;5121934;28;20032;-74
2021/10/30 07:45:15;;;;;;;29.45;14.65;;;384.10;2329.60;;;;;;5127063;27;20027;-75
2021/10/30 07:47:41;;;;;;;20.10;12.63;;;384.30;2329.60;;;;;;5120081;28;20042;-75
2021/10/30 07:50:07;;;;;;;15.68;10.48;;;384.40;2329.60;;;;;;5124684;27;20026;-74
2021/10/30 07:52:34;;;;;;;21.08;12.88;;;384.50;2329.60;;;;;;5119885;28;20023;-74
2021/10/30 07:55:00;;;;;;;17.67;11.40;;;384.60;2329.60;;;;;;5121220;27;20391;-74
2021/10/30 07:57:26;;;;;;;24.63;12.38;;;384.80;2329.60;;;;;;5119731;27;20032;-74
2021/10/30 07:59:51;;;;;;;18.70;11.18;;;409.70;2355.20;;;;;;5120811;27;20046;-74
2021/10/30 08:02:18;;;;;;;27.02;13.35;;;409.90;2355.20;;;;;;5116514;28;20535;-74
2021/10/30 08:04:45;;;;;;;14.57;10.75;;;410.10;2355.20;;;;;;5119343;28;20763;-75
2021/10/30 08:07:11;;;;;;;18.55;10.23;;;410.20;2355.20;;;;;;5120085;27;20055;-75
2021/10/30 08:09:37;;;;;;;13.32;10.02;;;410.30;2355.20;;;;;;5115984;27;20075;-74
2021/10/30 08:12:03;;;;;;;14.68;10.18;;;410.40;2355.20;;;;;;5122725;27;21531;-74
2021/10/30 08:14:29;;;;;;;16.95;11.65;;;435.20;2355.20;;;;;;5121936;27;20035;-74
2021/10/30 08:16:55;;;;;;;19.52;10.45;;;435.20;2355.20;;;;;;5118105;28;20441;-74
2021/10/30 08:19:20;;;;;;;16.58;10.77;;;435.40;2355.20;;;;;;5126886;27;20031;-74
2021/10/30 08:21:46;;;;;;;17.50;11.32;;;435.70;2355.20;;;;;;5128438;28;20027;-74
2021/10/30 08:24:12;;;;;;;26.48;13.55;;;435.90;2355.20;;;;;;5120520;28;20490;-74
2021/10/30 08:26:38;;;;;;;19.35;11.23;;;436.10;2355.20;;;;;;5131447;27;20027;-74
2021/10/30 08:29:04;;;;;;;28.67;15.10;;;460.80;2380.80;;;;;;5133412;27;20031;-74
2021/10/30 08:31:31;;;;;;;22.98;14.57;;;460.90;2380.80;;;;;;5134871;27;20038;-74
2021/10/30 08:33:57;;;;;;;20.85;12.50;;;461.10;2380.80;;;;;;5128961;27;20034;-74
2021/10/30 08:36:24;;;;;;;20.90;12.15;;;461.20;2380.80;;;;;;5134566;27;20050;-74
2021/10/30 08:38:50;;;;;;;24.20;12.68;;;461.30;2380.80;;;;;;5135252;27;20027;-74
2021/10/30 08:41:15;;;;;;;22.13;12.20;;;461.50;2380.80;;;;;;5134453;27;20015;-74
2021/10/30 08:43:41;;;;;;;20.00;11.30;;;486.50;2380.80;;;;;;5134831;27;20019;-74
2021/10/30 08:46:07;;;;;;;13.82;9.32;;;486.70;2380.80;;;;;;5128342;27;20024;-74
2021/10/30 08:48:33;;;;;;;19.23;11.70;;;486.70;2380.80;;;;;;5128226;27;20035;-73
2021/10/30 08:51:03;;;;;;;12.50;8.93;;;487.00;2380.80;;;;;;5124797;27;20104;-74
2021/10/30 08:53:29;;;;;;;15.20;10.10;;;487.10;2380.80;;;;;;5144384;27;20016;-74
2021/10/30 08:55:58;;;;;;;20.63;10.95;;;487.10;2380.80;;;;;;5125356;27;20523;-74
2021/10/30 08:58:27;;;;;;;16.48;9.25;;;512.00;2380.80;;;;;;5125887;27;20028;-73
2021/10/30 09:00:55;;;;;;;16.77;9.30;;;512.00;2380.80;;;;;;5126303;27;20020;-74
2021/10/30 09:03:22;;;;;;;19.23;9.45;;;512.20;2380.80;;;;;;5126946;27;20103;-74
2021/10/30 09:05:54;;;;;;;14.13;8.05;;;512.20;2380.80;;;;;;5128210;27;20019;-74
2021/10/30 09:08:23;;;;;;;15.07;8.43;;;512.30;2380.80;;;;;;5125088;27;20024;-74
2021/10/30 09:10:51;;;;;;;22.90;9.85;;;512.40;2380.80;;;;;;5131804;27;20027;-74
2021/10/30 09:13:20;;;;;;;15.07;8.75;;;512.70;2380.80;;;;;;5127351;27;20098;-74
2021/10/30 09:15:51;;;;;;;12.75;9.13;;;512.60;2380.80;;;;;;5133617;27;20023;-74
2021/10/30 09:18:36;;;;;;;17.80;9.10;;;512.80;2355.20;;;;;;5132485;27;20399;-74
2021/10/30 09:21:12;;;;;;;12.52;8.77;;;512.50;2329.60;;;;;;5117883;27;20827;-74
2021/10/30 09:23:46;;;;;;;16.67;9.77;;;512.80;2304.00;;;;;;5133714;27;20055;-75
2021/10/30 09:26:22;;;;;;;14.95;9.30;;;512.80;2304.00;;;;;;5134442;27;20036;-74
2021/10/30 09:29:03;;;;;;;18.08;9.32;;;537.70;2304.00;;;;;;5132325;27;20395;-74
2021/10/30 09:31:29;;;;;;;14.80;9.32;;;537.80;2278.40;;;;;;5133788;27;20026;-74
2021/10/30 09:33:56;;;;;;;16.77;8.77;;;538.00;2252.80;;;;;;5133048;27;20071;-74
2021/10/30 09:36:28;;;;;;;14.38;9.73;;;538.10;2227.20;;;;;;5133631;27;20039;-74
2021/10/30 09:38:55;;;;;;;18.35;8.95;;;538.40;2201.60;;;;;;5133952;27;20017;-74
2021/10/30 09:41:36;;;;;;;13.52;8.75;;;563.40;2201.60;;;;;;5131790;27;20077;-73
2021/10/30 09:44:05;;;;;;;14.60;8.38;;;563.80;2150.40;;;;;;5125773;27;20045;-74
2021/10/30 09:46:33;;;;;;;17.40;9.23;;;563.50;2124.80;;;;;;5133917;27;20022;-76
2021/10/30 09:49:17;;;;;;;16.33;7.93;;;564.00;2099.20;;;;;;5127736;27;20441;-74
2021/10/30 09:51:45;;;;;;;18.02;9.45;;;563.80;2073.60;;;;;;5126447;27;20391;-74
2021/10/30 09:54:12;;;;;;;20.75;9.20;;;563.70;2073.60;;;;;;5124338;27;20166;-74
2021/10/30 09:56:43;;;;;;;20.00;9.73;;;563.90;2048.00;;;;;;5127208;27;20058;-74
2021/10/30 09:59:12;;;;;;;17.30;10.48;;;588.80;2048.00;;;;;;5117593;27;20027;-77
2021/10/30 10:01:38;;;;;;;14.85;8.20;;;588.90;1996.80;;;;;;5122832;27;20826;-74
2021/10/30 10:04:05;;;;;;;18.30;8.10;;;589.10;1996.80;;;;;;5133340;27;20079;-74
2021/10/30 10:06:32;;;;;;;20.13;9.13;;;589.10;1996.80;;;;;;5132742;27;20020;-74
2021/10/30 10:09:01;;;;;;;14.65;9.27;;;588.80;1971.20;;;;;;5131748;27;20027;-74
2021/10/30 10:11:27;;;;;;;18.73;9.30;;;589.10;1945.60;;;;;;5128797;27;20015;-74
2021/10/30 10:13:53;;;;;;;26.50;12.90;;;589.10;1945.60;;;;;;5130964;27;20057;-74
2021/10/30 10:16:21;;;;;;;19.88;11.75;;;589.10;1945.60;;;;;;5130696;27;20375;-74
2021/10/30 10:18:54;;;;;;;20.63;9.82;;;589.00;1920.00;;;;;;5130816;27;20048;-74
2021/10/30 10:21:29;;;;;;;22.17;12.52;;;588.80;1945.60;;;;;;5114776;27;20036;-73
2021/10/30 10:24:02;;;;;;;17.98;10.27;;;589.00;1945.60;;;;;;5120339;27;20020;-74
2021/10/30 10:26:53;;;;;;;18.50;11.15;;;589.10;1920.00;;;;;;5125451;27;20021;-74
2021/10/30 10:29:40;;;;;;;18.48;10.60;;;589.10;1920.00;;;;;;5123240;27;20066;-74
2021/10/30 10:32:22;;;;;;;22.20;10.02;;;589.10;1920.00;;;;;;5128947;27;20518;-74
2021/10/30 10:34:49;;;;;;;24.17;11.85;;;589.10;1894.40;;;;;;5126244;27;20049;-74
2021/10/30 10:37:15;;;;;;;13.85;9.85;;;589.30;1894.40;;;;;;5129914;27;20096;-74
2021/10/30 10:39:53;;;;;;;20.27;9.88;;;589.50;1894.40;;;;;;5126311;27;20503;-74
2021/10/30 10:42:34;;;;;;;15.35;9.55;;;589.30;1894.40;;;;;;5127654;27;20026;-74
2021/10/30 10:45:00;;;;;;;19.00;10.52;;;589.70;1868.80;;;;;;5125446;27;20027;-74
2021/10/30 10:47:35;;;;;;;26.95;14.05;;;614.50;1843.20;;;;;;5127643;27;20108;-74
2021/10/30 10:50:12;;;;;;;21.70;10.13;;;614.50;1843.20;;;;;;5128437;27;20070;-74
2021/10/30 10:53:01;;;;;;;30.85;12.20;;;589.70;1843.20;;;;;;5128364;27;20012;-74
2021/10/30 10:55:34;;;;;;;27.85;14.80;;;614.70;1817.60;;;;;;5121344;27;20069;-74
2021/10/30 10:58:12;;;;;;;23.08;13.40;;;589.50;1843.20;;;;;;5126209;27;20088;-73
2021/10/30 11:00:58;;;;;;;28.35;13.48;;;589.70;1817.60;;;;;;5126034;27;20076;-74
2021/10/30 11:03:28;;;;;;;14.63;9.85;;;589.70;1817.60;;;;;;5123540;27;20028;-73
2021/10/30 11:06:03;;;;;;;20.90;10.52;;;589.70;1766.40;;;;;;5127533;27;20023;-73
2021/10/30 11:08:32;;;;;;;15.07;8.68;;;589.70;1766.40;;;;;;5123509;27;20023;-73
2021/10/30 11:11:19;;;;;;;19.63;9.75;;;589.70;1792.00;;;;;;5123684;27;20521;-73
2021/10/30 11:14:02;;;;;;;20.02;11.52;;;589.60;1792.00;;;;;;5119874;27;20079;-74
2021/10/30 11:16:32;;;;;;;22.80;11.00;;;589.40;1740.80;;;;;;5127120;27;20529;-73
2021/10/30 11:19:03;;;;;;;23.60;10.35;;;589.60;1740.80;;;;;;5121620;27;20041;-73
2021/10/30 11:21:39;;;;;;;17.08;9.45;;;614.70;1689.60;;;;;;5128627;27;20040;-73
2021/10/30 11:24:18;;;;;;;13.52;7.55;;;589.70;1740.80;;;;;;5131220;28;20027;-73
2021/10/30 11:26:52;;;;;;;15.05;8.27;;;614.70;1715.20;;;;;;5122489;28;20027;-74
2021/10/30 11:29:18;;;;;;;25.08;11.52;;;614.50;1715.20;;;;;;5131074;28;20039;-73
2021/10/30 11:31:50;;;;;;;19.27;10.93;;;589.30;1792.00;;;;;;5125645;27;20026;-73
2021/10/30 11:34:16;;;;;;;18.83;10.85;;;589.40;1766.40;;;;;;5126227;27;20023;-73
2021/10/30 11:36:42;;;;;;;19.70;12.30;;;589.60;1766.40;;;;;;5119128;27;20089;-76
2021/10/30 11:39:11;;;;;;;24.48;11.43;;;614.60;1715.20;;;;;;5121247;28;20028;-73
2021/10/30 11:41:38;;;;;;;14.50;8.65;;;614.50;1715.20;;;;;;5117975;28;20118;-73
2021/10/30 11:44:07;;;;;;;14.45;9.75;;;615.00;1664.00;;;;;;5121179;27;20156;-73
2021/10/30 11:46:46;;;;;;;16.83;10.57;;;614.80;1664.00;;;;;;5125134;27;20055;-73
2021/10/30 11:49:34;;;;;;;17.90;12.52;;;614.90;1664.00;;;;;;5122125;28;20057;-73
2021/10/30 11:52:09;;;;;;;15.00;8.10;;;615.30;1612.80;;;;;;5124017;28;20488;-73
2021/10/30 11:54:38;;;;;;;12.05;8.32;;;615.20;1561.60;;;;;;5120408;27;20051;-73
2021/10/30 11:57:08;;;;;;;13.95;8.23;;;615.00;1561.60;;;;;;5121460;28;20679;-74
2021/10/30 11:59:36;;;;;;;17.85;9.60;;;615.20;1587.20;;;;;;5122067;28;20051;-73
2021/10/30 12:02:01;;;;;;;16.20;9.07;;;615.00;1561.60;;;;;;5119700;27;20031;-73
2021/10/30 12:04:33;;;;;;;12.82;9.07;;;614.80;1587.20;;;;;;5127797;27;20035;-73